Portada
METAR-TAF:

METAR-TAF

Aeropuertos :

Kake, Alaska, Estados Unidos

latitud: 56-57N, longitud: 133-54W, altitud: 52 m

Observación

El informe se hizo hace 34 minutos, a las 10:56 UTC
Viento 5 kt del este
Temperatura 6°C
Humedad 87%
Presión 1015 hPa
Visibilidad: 16.1 km
Nubes dispersas a una altura de 5000 ft

METAR: PAFE 241056Z AUTO 09005KT 10SM SCT050 06/04 A2997 RMK AO2 SLP160 T00560039 $

Hora: 03:30 (11:30 UTC)


TAF: falta

Observaciones y pronósticos meteorológicos de más de 4000 aeropuertos (mensajes METAR y TAF).

Los puntos amarillos y rojos representan las estaciones disponibles.

Ponga el ratón en el punto deseado para ver el nombre de la estación.

Haga clic para ver las observaciones y los pronósticos meteorológicos.

Para cambiar el mapa : haga clic en los botones verdes con una cruz de color negro para hacer un zoom, en el botón verde con un guión para alejar o en las flechas verdes para mapas adyacentes.


METAR-TAF: